createdAt,value
2018-11-07T00:01:47.560Z,12.50
2018-11-07T00:04:15.784Z,12.50
2018-11-07T00:06:43.948Z,12.50
2018-11-07T00:09:12.096Z,12.50
2018-11-07T00:11:40.232Z,12.50
2018-11-07T00:14:08.403Z,12.40
2018-11-07T00:16:36.552Z,12.40
2018-11-07T00:19:05.080Z,12.50
2018-11-07T00:21:33.233Z,12.40
2018-11-07T00:24:01.364Z,12.40
2018-11-07T00:26:29.604Z,12.50
2018-11-07T00:28:57.692Z,12.40
2018-11-07T00:31:25.857Z,12.40
2018-11-07T00:33:54.063Z,12.40
2018-11-07T00:36:22.196Z,12.40
2018-11-07T00:38:50.344Z,12.40
2018-11-07T00:41:18.500Z,12.40
2018-11-07T00:43:46.648Z,12.40
2018-11-07T00:46:14.799Z,12.40
2018-11-07T00:48:42.997Z,12.30
2018-11-07T00:51:11.140Z,12.30
2018-11-07T00:53:39.265Z,12.30
2018-11-07T00:56:07.395Z,12.30
2018-11-07T00:58:35.540Z,12.30
2018-11-07T01:01:03.725Z,12.30
2018-11-07T01:03:31.868Z,12.30
2018-11-07T01:06:00.013Z,12.30
2018-11-07T01:08:28.169Z,12.30
2018-11-07T01:10:56.317Z,12.20
2018-11-07T01:13:24.489Z,12.20
2018-11-07T01:15:52.641Z,12.20
2018-11-07T01:18:20.780Z,12.20
2018-11-07T01:20:48.925Z,12.20
2018-11-07T01:23:17.044Z,12.20
2018-11-07T01:25:45.188Z,12.20
2018-11-07T01:28:13.377Z,12.20
2018-11-07T01:30:41.492Z,12.20
2018-11-07T01:33:09.636Z,12.20
2018-11-07T01:35:37.774Z,12.20
2018-11-07T01:38:06.170Z,12.10
2018-11-07T01:40:34.308Z,12.10
2018-11-07T01:43:02.485Z,12.10
2018-11-07T01:45:30.592Z,12.10
2018-11-07T01:47:58.770Z,12.10
2018-11-07T01:50:26.917Z,12.10
2018-11-07T01:52:55.053Z,12.10
2018-11-07T01:55:23.189Z,12.10
2018-11-07T01:57:51.341Z,12.00
2018-11-07T02:00:19.492Z,12.10
2018-11-07T02:02:47.627Z,12.10
2018-11-07T02:05:15.793Z,12.10
2018-11-07T02:07:43.932Z,12.00
2018-11-07T02:10:12.115Z,12.00
2018-11-07T02:12:41.228Z,12.00
2018-11-07T02:15:10.247Z,12.00
2018-11-07T02:17:38.399Z,12.00
2018-11-07T02:20:07.819Z,12.00
2018-11-07T02:22:36.004Z,11.90
2018-11-07T02:25:04.216Z,11.90
2018-11-07T02:27:32.365Z,11.80
2018-11-07T02:30:00.521Z,11.80
2018-11-07T02:32:28.690Z,11.80
2018-11-07T02:34:56.857Z,11.80
2018-11-07T02:37:25.017Z,11.80
2018-11-07T02:39:53.168Z,11.80
2018-11-07T02:42:21.320Z,11.70
2018-11-07T02:44:49.469Z,11.70
2018-11-07T02:47:17.651Z,11.70
2018-11-07T02:49:45.799Z,11.60
2018-11-07T02:52:13.966Z,11.60
2018-11-07T02:54:42.872Z,11.60
2018-11-07T02:57:11.024Z,11.60
2018-11-07T02:59:39.179Z,11.60
2018-11-07T03:02:07.284Z,11.50
2018-11-07T03:04:35.559Z,11.50
2018-11-07T03:07:03.730Z,11.50
2018-11-07T03:09:31.872Z,11.50
2018-11-07T03:12:00.037Z,11.50
2018-11-07T03:14:28.252Z,11.50
2018-11-07T03:16:56.400Z,11.40
2018-11-07T03:19:24.563Z,11.40
2018-11-07T03:21:52.708Z,11.40
2018-11-07T03:24:20.856Z,11.40
2018-11-07T03:26:49.012Z,11.40
2018-11-07T03:29:17.164Z,11.40
2018-11-07T03:31:45.284Z,11.40
2018-11-07T03:34:13.432Z,11.40
2018-11-07T03:36:41.587Z,11.30
2018-11-07T03:39:10.748Z,11.30
2018-11-07T03:41:38.956Z,11.30
2018-11-07T03:44:08.075Z,11.30
2018-11-07T03:46:36.232Z,11.30
2018-11-07T03:49:04.556Z,11.40
2018-11-07T03:51:32.700Z,11.30
2018-11-07T03:54:00.856Z,11.30
2018-11-07T03:56:28.972Z,11.30
2018-11-07T03:58:57.224Z,11.30
2018-11-07T04:01:25.377Z,11.20
2018-11-07T04:03:53.520Z,11.20
2018-11-07T04:06:21.687Z,11.10
2018-11-07T04:08:49.819Z,11.20
2018-11-07T04:11:18.052Z,11.20
2018-11-07T04:13:46.204Z,11.20
2018-11-07T04:16:14.350Z,11.20
2018-11-07T04:18:42.529Z,11.10
2018-11-07T04:21:10.708Z,11.10
2018-11-07T04:23:38.834Z,11.10
2018-11-07T04:26:07.082Z,11.10
2018-11-07T04:28:35.241Z,11.10
2018-11-07T04:31:03.401Z,11.00
2018-11-07T04:33:31.589Z,11.00
2018-11-07T04:35:59.746Z,11.00
2018-11-07T04:38:27.909Z,11.00
2018-11-07T04:40:56.060Z,11.00
2018-11-07T04:43:24.208Z,11.00
2018-11-07T04:45:52.336Z,11.00
2018-11-07T04:48:20.526Z,11.00
2018-11-07T04:50:48.696Z,11.00
2018-11-07T04:53:16.893Z,11.00
2018-11-07T04:55:45.104Z,11.00
2018-11-07T04:58:13.244Z,11.00
2018-11-07T05:00:41.347Z,11.00
2018-11-07T05:03:09.545Z,11.00
2018-11-07T05:05:37.712Z,10.90
2018-11-07T05:08:05.855Z,10.90
2018-11-07T05:10:34.003Z,10.90
2018-11-07T05:13:02.214Z,10.90
2018-11-07T05:15:30.348Z,10.90
2018-11-07T05:17:58.472Z,10.90
2018-11-07T05:20:26.624Z,10.90
2018-11-07T05:22:54.823Z,10.90
2018-11-07T05:25:22.944Z,10.90
2018-11-07T05:27:51.100Z,10.90
2018-11-07T05:30:19.260Z,10.90
2018-11-07T05:32:47.566Z,10.90
2018-11-07T05:35:15.718Z,10.80
2018-11-07T05:37:43.844Z,10.80
2018-11-07T05:40:11.993Z,10.80
2018-11-07T05:42:40.111Z,10.80
2018-11-07T05:45:08.367Z,10.80
2018-11-07T05:47:36.518Z,10.90
2018-11-07T05:50:06.103Z,10.80
2018-11-07T05:52:34.344Z,10.80
2018-11-07T05:55:02.543Z,10.80
2018-11-07T05:57:30.773Z,10.80
2018-11-07T05:59:58.938Z,10.80
2018-11-07T06:02:27.161Z,10.70
2018-11-07T06:04:55.345Z,10.70
2018-11-07T06:07:23.509Z,10.80
2018-11-07T06:09:51.767Z,10.70
2018-11-07T06:12:19.956Z,10.70
2018-11-07T06:14:48.109Z,10.70
2018-11-07T06:17:16.399Z,10.70
2018-11-07T06:19:44.566Z,10.70
2018-11-07T06:22:12.684Z,10.80
2018-11-07T06:24:40.860Z,10.80
2018-11-07T06:27:09.060Z,10.80
2018-11-07T06:29:37.247Z,10.90
2018-11-07T06:32:05.421Z,10.90
2018-11-07T06:34:33.774Z,10.90
2018-11-07T06:37:01.969Z,10.90
2018-11-07T06:39:30.260Z,11.00
2018-11-07T06:41:59.172Z,11.00
2018-11-07T06:44:27.407Z,11.00
2018-11-07T06:46:55.531Z,11.00
2018-11-07T06:49:23.695Z,11.10
2018-11-07T06:51:51.926Z,11.10
2018-11-07T06:54:20.078Z,11.10
2018-11-07T06:56:48.332Z,11.20
2018-11-07T06:59:16.563Z,11.20
2018-11-07T07:01:44.758Z,11.30
2018-11-07T07:04:12.946Z,11.30
2018-11-07T07:06:41.096Z,11.30
2018-11-07T07:09:09.964Z,11.30
2018-11-07T07:11:38.112Z,11.30
2018-11-07T07:14:06.751Z,11.40
2018-11-07T07:16:35.104Z,11.40
2018-11-07T07:19:03.519Z,11.40
2018-11-07T07:21:31.720Z,11.40
2018-11-07T07:23:59.977Z,11.50
2018-11-07T07:26:28.201Z,11.50
2018-11-07T07:28:56.412Z,11.50
2018-11-07T07:31:24.600Z,11.50
2018-11-07T07:33:52.749Z,11.60
2018-11-07T07:36:20.914Z,11.60
2018-11-07T07:38:49.052Z,11.70
2018-11-07T07:41:17.220Z,11.70
2018-11-07T07:43:45.363Z,11.80
2018-11-07T07:46:13.509Z,11.80
2018-11-07T07:48:41.642Z,11.90
2018-11-07T07:51:09.768Z,12.00
2018-11-07T07:53:37.901Z,12.00
2018-11-07T07:56:06.044Z,12.10
2018-11-07T07:58:34.176Z,12.10
2018-11-07T08:01:02.347Z,12.20
2018-11-07T08:03:31.573Z,12.30
2018-11-07T08:05:59.704Z,12.60
2018-11-07T08:08:27.838Z,13.00
2018-11-07T08:10:55.984Z,13.40
2018-11-07T08:13:24.147Z,13.90
2018-11-07T08:15:52.291Z,14.50
2018-11-07T08:18:20.436Z,14.70
2018-11-07T08:20:48.560Z,14.80
2018-11-07T08:23:16.711Z,15.40
2018-11-07T08:25:44.844Z,15.70
2018-11-07T08:28:12.980Z,15.70
2018-11-07T08:30:41.134Z,15.40
2018-11-07T08:33:09.287Z,15.50
2018-11-07T08:35:37.413Z,15.50
2018-11-07T08:38:05.848Z,15.30
2018-11-07T08:40:33.987Z,15.10
2018-11-07T08:43:02.131Z,15.10
2018-11-07T08:45:30.268Z,15.40
2018-11-07T08:47:58.409Z,15.50
2018-11-07T08:50:26.528Z,15.40
2018-11-07T08:52:54.696Z,15.40
2018-11-07T08:55:23.415Z,15.50
2018-11-07T08:57:51.592Z,15.40
2018-11-07T09:00:20.940Z,15.70
2018-11-07T09:02:49.074Z,15.70
2018-11-07T09:05:18.055Z,15.70
2018-11-07T09:07:46.743Z,16.10
2018-11-07T09:10:17.695Z,16.20
2018-11-07T09:12:45.800Z,15.80
2018-11-07T09:15:16.077Z,15.60
2018-11-07T09:17:44.203Z,15.70
2018-11-07T09:20:16.498Z,15.80
2018-11-07T09:22:44.625Z,15.90
2018-11-07T09:25:13.470Z,16.20
2018-11-07T09:27:41.802Z,16.60
2018-11-07T09:30:11.869Z,17.00
2018-11-07T09:32:40.073Z,17.20
2018-11-07T09:35:09.561Z,17.10
2018-11-07T09:37:37.842Z,17.50
2018-11-07T09:40:10.276Z,17.20
2018-11-07T09:42:39.308Z,17.60
2018-11-07T09:45:08.693Z,18.10
2018-11-07T09:47:36.870Z,18.10
2018-11-07T09:50:06.247Z,17.80
2018-11-07T09:52:34.352Z,17.10
2018-11-07T09:55:02.518Z,16.90
2018-11-07T09:57:30.632Z,17.50
2018-11-07T09:59:58.766Z,17.40
2018-11-07T10:02:26.864Z,18.00
2018-11-07T10:04:54.997Z,17.50
2018-11-07T10:07:23.098Z,17.20
2018-11-07T10:09:51.195Z,17.30
2018-11-07T10:12:19.328Z,17.20
2018-11-07T10:14:47.397Z,17.20
2018-11-07T10:17:15.503Z,17.90
2018-11-07T10:19:43.621Z,17.90
2018-11-07T10:22:11.747Z,17.20
2018-11-07T10:24:39.869Z,16.60
2018-11-07T10:27:08.244Z,16.70
2018-11-07T10:29:36.603Z,16.40
2018-11-07T10:32:04.881Z,16.50
2018-11-07T10:34:33.061Z,16.40
2018-11-07T10:37:01.400Z,16.40
2018-11-07T10:39:29.529Z,16.50
2018-11-07T10:41:57.853Z,16.60
2018-11-07T10:44:26.030Z,16.60
2018-11-07T10:46:54.097Z,16.70
2018-11-07T10:49:22.216Z,16.70
2018-11-07T10:51:50.358Z,16.60
2018-11-07T10:54:18.443Z,16.50
2018-11-07T10:56:46.640Z,16.30
2018-11-07T10:59:14.762Z,16.40
2018-11-07T11:01:48.263Z,16.30
2018-11-07T11:04:16.363Z,16.50
2018-11-07T11:06:44.467Z,16.40
2018-11-07T11:09:12.568Z,16.30
2018-11-07T11:11:40.742Z,15.80
2018-11-07T11:14:09.217Z,15.40
2018-11-07T11:16:37.363Z,15.40
2018-11-07T11:19:05.854Z,15.30
2018-11-07T11:21:33.980Z,15.30
2018-11-07T11:24:02.109Z,15.40
2018-11-07T11:26:30.209Z,15.40
2018-11-07T11:28:58.350Z,15.80
2018-11-07T11:31:26.473Z,16.00
2018-11-07T11:33:54.597Z,16.10
2018-11-07T11:36:22.665Z,15.80
2018-11-07T11:38:50.796Z,15.70
2018-11-07T11:41:19.047Z,15.40
2018-11-07T11:43:47.068Z,15.40
2018-11-07T11:46:15.193Z,15.30
2018-11-07T11:48:43.370Z,15.10
2018-11-07T11:51:11.513Z,14.80
2018-11-07T11:53:39.956Z,14.90
2018-11-07T11:56:08.135Z,15.00
2018-11-07T11:58:36.258Z,15.10
2018-11-07T12:01:04.388Z,14.90
2018-11-07T12:03:32.551Z,14.70
2018-11-07T12:06:00.691Z,14.70
2018-11-07T12:08:28.944Z,14.60
2018-11-07T12:10:56.980Z,14.50
2018-11-07T12:13:25.168Z,14.40
2018-11-07T12:15:53.288Z,14.50
2018-11-07T12:18:21.422Z,14.60
2018-11-07T12:20:49.560Z,14.60
2018-11-07T12:23:17.693Z,14.70
2018-11-07T12:25:45.842Z,15.00
2018-11-07T12:28:13.984Z,15.10
2018-11-07T12:30:42.112Z,15.20
2018-11-07T12:33:10.233Z,15.30
2018-11-07T12:35:38.397Z,15.30
2018-11-07T12:38:06.522Z,15.40
2018-11-07T12:40:34.652Z,15.40
2018-11-07T12:43:02.816Z,15.40
2018-11-07T12:45:30.941Z,15.40
2018-11-07T12:47:59.094Z,15.50
2018-11-07T12:50:27.278Z,15.80
2018-11-07T12:52:55.393Z,16.00
2018-11-07T12:55:23.565Z,15.80
2018-11-07T12:57:51.726Z,15.70
2018-11-07T13:00:21.655Z,15.50
2018-11-07T13:02:49.844Z,15.60
2018-11-07T13:05:19.060Z,15.60
2018-11-07T13:07:48.040Z,15.50
2018-11-07T13:10:17.324Z,15.70
2018-11-07T13:12:46.039Z,15.80
2018-11-07T13:15:14.784Z,15.90
2018-11-07T13:17:43.192Z,16.00
2018-11-07T13:20:14.736Z,16.00
2018-11-07T13:22:43.840Z,15.90
2018-11-07T13:25:12.500Z,15.80
2018-11-07T13:27:40.643Z,15.80
2018-11-07T13:30:10.839Z,15.60
2018-11-07T13:32:39.044Z,15.20
2018-11-07T13:35:07.999Z,15.20
2018-11-07T13:37:36.445Z,14.90
2018-11-07T13:40:06.851Z,14.70
2018-11-07T13:42:34.973Z,14.60
2018-11-07T13:45:03.136Z,14.60
2018-11-07T13:47:31.277Z,14.70
2018-11-07T13:49:59.429Z,14.80
2018-11-07T13:52:27.570Z,14.90
2018-11-07T13:54:56.223Z,14.90
2018-11-07T13:57:24.353Z,14.90
2018-11-07T13:59:52.500Z,14.90
2018-11-07T14:02:20.720Z,15.00
2018-11-07T14:04:48.871Z,14.90
2018-11-07T14:07:17.036Z,14.90
2018-11-07T14:09:45.162Z,14.70
2018-11-07T14:12:13.312Z,14.70
2018-11-07T14:14:41.508Z,14.60
2018-11-07T14:17:09.664Z,14.60
2018-11-07T14:19:37.778Z,14.50
2018-11-07T14:22:05.907Z,14.30
2018-11-07T14:24:34.027Z,14.20
2018-11-07T14:27:02.164Z,14.10
2018-11-07T14:29:31.605Z,14.00
2018-11-07T14:31:59.756Z,13.90
2018-11-07T14:34:27.892Z,13.70
2018-11-07T14:36:56.091Z,13.70
2018-11-07T14:39:24.168Z,13.70
2018-11-07T14:41:52.299Z,13.60
2018-11-07T14:44:20.420Z,13.60
2018-11-07T14:46:48.601Z,13.50
2018-11-07T14:49:16.772Z,13.50
2018-11-07T14:51:44.924Z,13.40
2018-11-07T14:54:13.077Z,13.30
2018-11-07T14:56:41.200Z,13.30
2018-11-07T14:59:09.360Z,13.20
2018-11-07T15:01:37.606Z,13.20
2018-11-07T15:04:05.640Z,13.10
2018-11-07T15:06:33.753Z,13.00
2018-11-07T15:09:01.891Z,13.00
2018-11-07T15:11:30.083Z,12.90
2018-11-07T15:13:58.583Z,12.90
2018-11-07T15:16:26.717Z,12.80
2018-11-07T15:18:54.845Z,12.80
2018-11-07T15:21:23.192Z,12.80
2018-11-07T15:23:51.317Z,12.80
2018-11-07T15:26:19.436Z,12.70
2018-11-07T15:28:47.568Z,12.70
2018-11-07T15:31:15.707Z,12.70
2018-11-07T15:33:43.912Z,12.60
2018-11-07T15:36:12.160Z,12.60
2018-11-07T15:38:40.242Z,12.50
2018-11-07T15:41:08.351Z,12.50
2018-11-07T15:43:36.543Z,12.50
2018-11-07T15:46:04.799Z,12.50
2018-11-07T15:48:32.959Z,12.50
2018-11-07T15:51:06.616Z,12.40
2018-11-07T15:53:34.961Z,12.40
2018-11-07T15:56:03.100Z,12.40
2018-11-07T15:58:32.667Z,12.30
2018-11-07T16:01:00.774Z,12.30
2018-11-07T16:03:34.255Z,12.30
2018-11-07T16:06:02.630Z,12.30
2018-11-07T16:08:30.882Z,12.30
2018-11-07T16:10:59.023Z,12.30
2018-11-07T16:13:27.270Z,12.20
2018-11-07T16:15:55.391Z,12.20
2018-11-07T16:18:23.521Z,12.10
2018-11-07T16:20:51.664Z,12.10
2018-11-07T16:23:19.815Z,12.10
2018-11-07T16:25:47.967Z,12.00
2018-11-07T16:28:16.081Z,12.00
2018-11-07T16:30:44.220Z,12.10
2018-11-07T16:33:12.381Z,12.00
2018-11-07T16:35:40.506Z,12.10
2018-11-07T16:38:08.637Z,12.00
2018-11-07T16:40:36.818Z,12.00
2018-11-07T16:43:05.380Z,12.00
2018-11-07T16:45:33.517Z,12.00
2018-11-07T16:48:01.654Z,12.00
2018-11-07T16:50:29.916Z,11.90
2018-11-07T16:52:58.089Z,11.90
2018-11-07T16:55:26.220Z,12.00
2018-11-07T16:57:54.390Z,11.90
2018-11-07T17:00:22.617Z,11.90
2018-11-07T17:02:50.891Z,11.90
2018-11-07T17:05:19.463Z,11.90
2018-11-07T17:07:47.783Z,11.90
2018-11-07T17:10:16.312Z,11.90
2018-11-07T17:12:44.512Z,11.90
2018-11-07T17:15:12.688Z,11.80
2018-11-07T17:17:40.809Z,11.80
2018-11-07T17:20:10.247Z,11.80
2018-11-07T17:22:38.432Z,11.80
2018-11-07T17:25:08.576Z,11.70
2018-11-07T17:27:36.755Z,11.70
2018-11-07T17:30:05.758Z,11.70
2018-11-07T17:32:33.920Z,11.70
2018-11-07T17:35:02.053Z,11.70
2018-11-07T17:37:30.224Z,11.70
2018-11-07T17:39:58.335Z,11.60
2018-11-07T17:42:26.462Z,11.70
2018-11-07T17:44:54.583Z,11.70
2018-11-07T17:47:22.697Z,11.60
2018-11-07T17:49:50.827Z,11.60
2018-11-07T17:52:18.965Z,11.70
2018-11-07T17:54:47.123Z,11.60
2018-11-07T17:57:16.446Z,11.60
2018-11-07T17:59:44.664Z,11.50
2018-11-07T18:02:13.272Z,11.50
2018-11-07T18:04:42.148Z,11.50
2018-11-07T18:07:10.304Z,11.40
2018-11-07T18:09:38.470Z,11.40
2018-11-07T18:12:06.620Z,11.40
2018-11-07T18:14:34.717Z,11.30
2018-11-07T18:17:02.867Z,11.10
2018-11-07T18:19:31.075Z,11.00
2018-11-07T18:21:59.159Z,10.90
2018-11-07T18:24:27.289Z,10.70
2018-11-07T18:26:56.492Z,10.70
2018-11-07T18:29:24.612Z,10.70
2018-11-07T18:31:52.776Z,10.60
2018-11-07T18:34:21.000Z,10.70
2018-11-07T18:36:49.109Z,10.90
2018-11-07T18:39:17.265Z,10.90
2018-11-07T18:41:45.368Z,10.90
2018-11-07T18:44:13.640Z,11.00
2018-11-07T18:46:41.763Z,11.10
2018-11-07T18:49:09.903Z,11.00
2018-11-07T18:51:38.048Z,11.00
2018-11-07T18:54:06.242Z,11.00
2018-11-07T18:56:34.352Z,11.00
2018-11-07T18:59:02.533Z,11.00
2018-11-07T19:01:30.644Z,11.10
2018-11-07T19:03:58.782Z,11.10
2018-11-07T19:06:27.090Z,11.00
2018-11-07T19:08:55.222Z,11.00
2018-11-07T19:11:23.420Z,10.90
2018-11-07T19:13:51.550Z,10.80
2018-11-07T19:16:19.736Z,10.80
2018-11-07T19:18:47.876Z,10.80
2018-11-07T19:21:15.988Z,10.80
2018-11-07T19:23:44.286Z,10.90
2018-11-07T19:26:12.379Z,10.90
2018-11-07T19:28:40.600Z,10.90
2018-11-07T19:31:08.717Z,10.90
2018-11-07T19:33:36.824Z,10.80
2018-11-07T19:36:05.159Z,10.80
2018-11-07T19:38:33.280Z,10.90
2018-11-07T19:41:01.445Z,10.80
2018-11-07T19:43:29.603Z,10.70
2018-11-07T19:45:57.724Z,10.60
2018-11-07T19:48:25.876Z,10.60
2018-11-07T19:50:54.016Z,10.40
2018-11-07T19:53:22.137Z,10.40
2018-11-07T19:55:50.368Z,10.30
2018-11-07T19:58:19.268Z,10.20
2018-11-07T20:00:47.514Z,10.10
2018-11-07T20:03:15.656Z,10.00
2018-11-07T20:05:43.799Z,9.90
2018-11-07T20:08:11.929Z,9.80
2018-11-07T20:10:40.056Z,9.80
2018-11-07T20:13:08.192Z,9.70
2018-11-07T20:15:36.301Z,9.60
2018-11-07T20:18:04.448Z,9.60
2018-11-07T20:20:32.622Z,9.50
2018-11-07T20:23:00.810Z,9.50
2018-11-07T20:25:29.021Z,9.40
2018-11-07T20:27:57.148Z,9.40
2018-11-07T20:30:25.292Z,9.20
2018-11-07T20:32:53.415Z,9.20
2018-11-07T20:35:22.516Z,9.20
2018-11-07T20:37:50.647Z,9.10
2018-11-07T20:40:19.968Z,9.10
2018-11-07T20:42:48.148Z,9.00
2018-11-07T20:45:16.992Z,9.00
2018-11-07T20:47:45.515Z,8.80
2018-11-07T20:50:15.100Z,8.80
2018-11-07T20:52:43.619Z,8.70
2018-11-07T20:55:12.659Z,8.70
2018-11-07T20:57:40.855Z,8.70
2018-11-07T21:00:11.992Z,8.60
2018-11-07T21:02:40.636Z,8.60
2018-11-07T21:05:09.075Z,8.60
2018-11-07T21:07:37.736Z,8.50
2018-11-07T21:10:08.029Z,8.50
2018-11-07T21:12:36.179Z,8.40
2018-11-07T21:15:05.103Z,8.40
2018-11-07T21:17:33.224Z,8.40
2018-11-07T21:20:01.387Z,8.40
2018-11-07T21:22:29.589Z,8.50
2018-11-07T21:24:57.760Z,8.40
2018-11-07T21:27:25.938Z,8.30
2018-11-07T21:29:54.080Z,8.30
2018-11-07T21:32:22.276Z,8.30
2018-11-07T21:34:50.469Z,8.30
2018-11-07T21:37:18.616Z,8.20
2018-11-07T21:39:46.913Z,8.20
2018-11-07T21:42:15.072Z,8.20
2018-11-07T21:44:43.335Z,8.20
2018-11-07T21:47:11.440Z,8.20
2018-11-07T21:49:39.564Z,8.10
2018-11-07T21:52:07.992Z,8.10
2018-11-07T21:54:36.217Z,8.10
2018-11-07T21:57:04.390Z,8.00
2018-11-07T21:59:39.047Z,8.00
2018-11-07T22:02:07.130Z,7.90
2018-11-07T22:04:35.247Z,7.90
2018-11-07T22:07:03.443Z,7.90
2018-11-07T22:09:31.563Z,7.80
2018-11-07T22:11:59.779Z,7.70
2018-11-07T22:14:27.943Z,7.70
2018-11-07T22:16:56.065Z,7.80
2018-11-07T22:19:24.260Z,7.80
2018-11-07T22:21:52.391Z,7.80
2018-11-07T22:24:20.760Z,7.70
2018-11-07T22:26:48.877Z,7.60
2018-11-07T22:29:19.250Z,7.60
2018-11-07T22:31:48.695Z,7.50
2018-11-07T22:34:16.864Z,7.50
2018-11-07T22:36:45.008Z,7.50
2018-11-07T22:39:14.225Z,7.40
2018-11-07T22:41:43.231Z,7.40
2018-11-07T22:44:11.347Z,7.40
2018-11-07T22:46:39.647Z,7.40
2018-11-07T22:49:07.856Z,7.40
2018-11-07T22:51:36.147Z,7.30
2018-11-07T22:54:04.715Z,7.30
2018-11-07T22:56:32.962Z,7.30
2018-11-07T22:59:01.109Z,7.20
2018-11-07T23:01:34.740Z,7.20
2018-11-07T23:04:02.948Z,7.30
2018-11-07T23:06:31.072Z,7.20
2018-11-07T23:08:59.199Z,7.20
2018-11-07T23:11:27.348Z,7.20
2018-11-07T23:13:55.520Z,7.20
2018-11-07T23:16:23.632Z,7.20
2018-11-07T23:18:51.748Z,7.20
2018-11-07T23:21:19.856Z,7.20
2018-11-07T23:23:47.995Z,7.10
2018-11-07T23:26:16.108Z,7.20
2018-11-07T23:28:44.233Z,7.10
2018-11-07T23:31:12.348Z,7.10
2018-11-07T23:33:40.488Z,7.10
2018-11-07T23:36:08.644Z,7.00
2018-11-07T23:38:36.755Z,7.00
2018-11-07T23:41:05.341Z,7.00
2018-11-07T23:43:33.438Z,7.00
2018-11-07T23:46:01.570Z,6.90
2018-11-07T23:48:29.696Z,6.90
2018-11-07T23:51:03.519Z,7.00
2018-11-07T23:53:31.659Z,6.90
2018-11-07T23:55:59.764Z,6.90
2018-11-07T23:58:27.899Z,6.90
